Time;durP1;ratioP1;P1;durP2;ratioP2;P2;SDS_P1;SDS_P2;PMS_P1;PMS_P2;Temp;Humidity;BMP_temperature;BMP_pressure;BME280_temperature;BME280_humidity;BME280_pressure;Samples;Min_cycle;Max_cycle;Signal;HPM_P1;HPM_P2
2021/08/10 00:01:13;;;;;;;;;;;;;;;24.17;39.91;100830.41;5099147;28;867;-36
2021/08/10 00:03:38;;;;;;;;;;;;;;;24.48;39.76;100820.97;5099446;28;780;-36
2021/08/10 00:06:04;;;;;;;;;;;;;;;23.14;43.60;100821.94;5098690;28;1029;-36
2021/08/10 00:08:29;;;;;;;;;;;;;;;24.25;39.76;100812.63;5099548;28;823;-37
2021/08/10 00:10:55;;;;;;;;;;;;;;;23.62;39.49;100815.47;5099038;28;1906;-33
2021/08/10 00:13:21;;;;;;;;;;;;;;;23.58;41.79;100813.13;5098656;28;732;-36
2021/08/10 00:15:46;;;;;;;;;;;;;;;24.53;39.16;100815.94;5099386;28;756;-36
2021/08/10 00:18:11;;;;;;;;;;;;;;;21.83;44.55;100808.59;5099068;28;867;-36
2021/08/10 00:20:37;;;;;;;;;;;;;;;23.73;40.94;100815.22;5088544;28;1006;-36
2021/08/10 00:23:02;;;;;;;;;;;;;;;24.27;40.94;100814.19;5078822;28;784;-36
2021/08/10 00:25:27;;;;;;;;;;;;;;;22.27;44.40;100809.81;5059886;28;1116;-35
2021/08/10 00:27:53;;;;;;;;;;;;;;;23.95;39.99;100807.63;5078594;28;837;-36
2021/08/10 00:30:18;;;;;;;;;;;;;;;24.17;40.86;100816.97;5077419;28;808;-37
2021/08/10 00:32:43;;;;;;;;;;;;;;;22.85;44.53;100806.94;5078315;28;1902;-37
2021/08/10 00:35:09;;;;;;;;;;;;;;;24.16;39.62;100809.03;5084639;28;955;-37
2021/08/10 00:37:34;;;;;;;;;;;;;;;24.52;38.81;100816.09;5098751;28;875;-37
2021/08/10 00:39:59;;;;;;;;;;;;;;;23.36;42.23;100809.91;5098497;28;752;-35
2021/08/10 00:42:25;;;;;;;;;;;;;;;24.32;39.08;100800.25;5098495;28;783;-36
2021/08/10 00:44:50;;;;;;;;;;;;;;;22.70;41.13;100798.59;5098600;28;823;-37
2021/08/10 00:47:15;;;;;;;;;;;;;;;23.53;41.03;100802.00;5098363;28;986;-37
2021/08/10 00:49:40;;;;;;;;;;;;;;;24.36;39.83;100801.59;5098154;28;1009;-35
2021/08/10 00:52:06;;;;;;;;;;;;;;;24.65;38.28;100805.72;5097796;28;1905;-35
2021/08/10 00:54:31;;;;;;;;;;;;;;;24.70;37.07;100800.69;5098613;28;1055;-34
2021/08/10 00:56:56;;;;;;;;;;;;;;;23.38;42.15;100801.69;5080539;28;827;-37
2021/08/10 00:59:22;;;;;;;;;;;;;;;24.36;39.15;100803.47;5098273;28;819;-36
2021/08/10 01:01:47;;;;;;;;;;;;;;;22.16;42.91;100789.41;5098364;28;839;-37
2021/08/10 01:04:12;;;;;;;;;;;;;;;23.64;41.17;100803.56;5097764;28;756;-36
2021/08/10 01:06:44;;;;;;;;;;;;;;;24.29;40.65;100805.94;5097633;28;1018;-34
2021/08/10 01:09:10;;;;;;;;;;;;;;;21.86;44.85;100810.97;5080214;28;748;-35
2021/08/10 01:11:38;;;;;;;;;;;;;;;23.93;40.64;100804.25;5080010;28;1972;-36
2021/08/10 01:14:11;;;;;;;;;;;;;;;24.30;40.48;100813.84;5097547;28;760;-36
2021/08/10 01:16:41;;;;;;;;;;;;;;;24.88;38.46;100806.91;5097665;28;796;-34
2021/08/10 01:19:17;;;;;;;;;;;;;;;21.72;44.70;100812.22;5079034;28;861;-35
2021/08/10 01:21:42;;;;;;;;;;;;;;;23.98;40.64;100807.28;5060115;28;979;-31
2021/08/10 01:24:14;;;;;;;;;;;;;;;24.29;40.91;100805.94;5060942;28;1112;-36
2021/08/10 01:27:03;;;;;;;;;;;;;;;22.65;44.94;100801.72;5097989;28;829;-37
2021/08/10 01:29:28;;;;;;;;;;;;;;;24.30;39.79;100802.25;5059513;28;1055;-37
2021/08/10 01:31:53;;;;;;;;;;;;;;;24.56;39.24;100807.53;5097859;28;1913;-35
2021/08/10 01:34:23;;;;;;;;;;;;;;;24.85;39.61;100804.56;5078877;28;813;-34
2021/08/10 01:36:49;;;;;;;;;;;;;;;22.66;44.66;100799.88;5079669;28;913;-37
2021/08/10 01:39:14;;;;;;;;;;;;;;;24.16;40.34;100812.59;5079634;28;827;-36
2021/08/10 01:41:39;;;;;;;;;;;;;;;24.43;40.52;100807.16;5078723;28;804;-35
2021/08/10 01:44:05;;;;;;;;;;;;;;;22.92;44.54;100801.81;5079408;28;771;-36
2021/08/10 01:46:30;;;;;;;;;;;;;;;24.20;40.21;100808.59;5079577;28;1009;-31
2021/08/10 01:48:55;;;;;;;;;;;;;;;24.48;39.41;100804.81;5079246;28;800;-34
2021/08/10 01:51:21;;;;;;;;;;;;;;;24.86;39.29;100812.47;5096709;28;1905;-35
2021/08/10 01:53:46;;;;;;;;;;;;;;;22.67;44.31;100804.25;5097048;28;1015;-36
2021/08/10 01:56:12;;;;;;;;;;;;;;;24.14;40.24;100808.38;5091025;28;1134;-36
2021/08/10 01:58:37;;;;;;;;;;;;;;;24.33;40.57;100809.97;5117475;28;803;-37
2021/08/10 02:01:02;;;;;;;;;;;;;;;24.91;38.51;100812.84;5117876;28;736;-36
2021/08/10 02:03:28;;;;;;;;;;;;;;;21.72;45.08;100804.19;5117142;28;882;-35
2021/08/10 02:05:53;;;;;;;;;;;;;;;23.90;40.99;100813.47;5085915;28;970;-36
2021/08/10 02:08:18;;;;;;;;;;;;;;;24.24;41.25;100817.16;5079149;28;756;-37
2021/08/10 02:10:44;;;;;;;;;;;;;;;24.82;39.01;100821.88;5078990;28;1913;-37
2021/08/10 02:13:10;;;;;;;;;;;;;;;22.61;42.42;100817.28;5096683;28;792;-37
2021/08/10 02:15:36;;;;;;;;;;;;;;;23.70;41.63;100820.91;5079590;28;747;-36
2021/08/10 02:18:01;;;;;;;;;;;;;;;24.30;41.28;100819.22;5097087;28;847;-36
2021/08/10 02:20:26;;;;;;;;;;;;;;;22.06;44.97;100818.06;5096744;28;951;-37
2021/08/10 02:22:51;;;;;;;;;;;;;;;24.00;40.93;100810.66;5096639;28;767;-37
2021/08/10 02:25:21;;;;;;;;;;;;;;;24.14;41.55;100808.38;5097149;28;1186;-33
2021/08/10 02:27:51;;;;;;;;;;;;;;;24.84;39.02;100809.09;5078773;28;815;-34
2021/08/10 02:30:22;;;;;;;;;;;;;;;22.03;44.39;100816.53;5078295;28;841;-36
2021/08/10 02:32:47;;;;;;;;;;;;;;;23.96;41.11;100822.72;5096911;28;1959;-38
2021/08/10 02:35:13;;;;;;;;;;;;;;;24.17;41.58;100819.66;5077852;28;943;-37
2021/08/10 02:37:38;;;;;;;;;;;;;;;22.36;45.92;100818.78;5078743;28;768;-34
2021/08/10 02:40:07;;;;;;;;;;;;;;;24.03;41.14;100817.56;5078096;28;800;-37
2021/08/10 02:42:32;;;;;;;;;;;;;;;24.41;40.47;100822.59;5096371;28;779;-37
2021/08/10 02:44:58;;;;;;;;;;;;;;;24.92;38.99;100816.38;5096581;28;733;-37
2021/08/10 02:47:24;;;;;;;;;;;;;;;22.02;45.04;100823.72;5078693;28;961;-37
2021/08/10 02:49:49;;;;;;;;;;;;;;;23.93;41.22;100813.16;5096275;28;998;-37
2021/08/10 02:52:14;;;;;;;;;;;;;;;24.26;41.61;100819.69;5096662;28;1906;-38
2021/08/10 02:54:40;;;;;;;;;;;;;;;24.81;39.19;100817.50;5100811;28;804;-38
2021/08/10 02:57:06;;;;;;;;;;;;;;;22.63;42.59;100812.59;5081491;28;1301;-37
2021/08/10 02:59:33;;;;;;;;;;;;;;;23.73;41.87;100818.75;5100505;28;752;-35
2021/08/10 03:02:06;;;;;;;;;;;;;;;24.36;41.35;100822.28;5083020;28;747;-38
2021/08/10 03:04:31;;;;;;;;;;;;;;;24.60;42.10;100818.81;5081568;28;1009;-32
2021/08/10 03:06:57;;;;;;;;;;;;;;;24.02;40.55;100824.78;5082524;28;813;-29
2021/08/10 03:09:22;;;;;;;;;;;;;;;23.75;44.40;100815.91;5082247;28;803;-35
2021/08/10 03:11:47;;;;;;;;;;;;;;;24.48;43.17;100828.19;5100341;28;1973;-36
2021/08/10 03:14:12;;;;;;;;;;;;;;;24.13;48.82;100831.72;5081741;28;819;-34
2021/08/10 03:16:39;;;;;;;;;;;;;;;24.59;46.38;100833.25;5082613;28;741;-30
2021/08/10 03:19:05;;;;;;;;;;;;;;;23.43;51.12;100833.47;5081845;28;774;-31
2021/08/10 03:21:30;;;;;;;;;;;;;;;23.87;50.60;100832.59;5064172;28;959;-31
2021/08/10 03:23:55;;;;;;;;;;;;;;;24.32;46.87;100844.09;5062096;28;791;-35
2021/08/10 03:26:21;;;;;;;;;;;;;;;24.34;48.87;100847.47;5061336;28;1073;-31
2021/08/10 03:28:46;;;;;;;;;;;;;;;24.20;48.65;100848.06;5080305;28;799;-37
2021/08/10 03:31:12;;;;;;;;;;;;;;;24.21;49.56;100852.44;5061635;28;1975;-33
2021/08/10 03:33:37;;;;;;;;;;;;;;;24.39;49.43;100854.22;5079600;28;748;-31
2021/08/10 03:36:04;;;;;;;;;;;;;;;24.67;47.95;100851.28;5061199;28;995;-35
2021/08/10 03:38:30;;;;;;;;;;;;;;;24.60;47.42;100847.53;5079276;28;820;-32
2021/08/10 03:40:55;;;;;;;;;;;;;;;23.90;49.99;100845.72;5079133;28;558;-30
2021/08/10 03:43:21;;;;;;;;;;;;;;;24.16;47.83;100849.34;5079725;28;776;-31
2021/08/10 03:45:46;;;;;;;;;;;;;;;24.44;48.88;100850.00;5079196;28;776;-33
2021/08/10 03:48:12;;;;;;;;;;;;;;;24.75;48.04;100855.81;5079346;28;808;-32
2021/08/10 03:50:39;;;;;;;;;;;;;;;23.82;47.61;100845.66;5089681;28;939;-35
2021/08/10 03:53:04;;;;;;;;;;;;;;;24.40;45.75;100842.44;5099200;28;1910;-35
2021/08/10 03:55:30;;;;;;;;;;;;;;;24.98;45.75;100848.00;5099201;28;1198;-34
2021/08/10 03:57:55;;;;;;;;;;;;;;;24.70;47.05;100854.47;5081202;28;880;-36
2021/08/10 04:00:20;;;;;;;;;;;;;;;24.12;46.03;100843.47;5081387;28;760;-34
2021/08/10 04:02:45;;;;;;;;;;;;;;;23.84;50.09;100843.63;5081260;28;847;-36
2021/08/10 04:05:11;;;;;;;;;;;;;;;23.86;51.38;100855.06;5098006;28;986;-34
2021/08/10 04:07:36;;;;;;;;;;;;;;;23.80;51.80;100856.56;5099086;28;816;-32
2021/08/10 04:10:02;;;;;;;;;;;;;;;24.47;50.63;100862.31;5080771;28;1647;-35
2021/08/10 04:12:27;;;;;;;;;;;;;;;24.58;49.67;100859.31;5099496;28;1910;-35
2021/08/10 04:14:52;;;;;;;;;;;;;;;24.79;48.86;100859.88;5099436;28;771;-36
2021/08/10 04:17:18;;;;;;;;;;;;;;;25.03;48.12;100863.66;5075200;28;977;-34
2021/08/10 04:19:53;;;;;;;;;;;;;;;25.21;47.90;100862.66;5097102;28;804;-33
2021/08/10 04:22:19;;;;;;;;;;;;;;;24.94;49.49;100860.94;5081786;28;766;-37
2021/08/10 04:24:45;;;;;;;;;;;;;;;25.25;47.49;100864.00;5080189;28;1116;-36
2021/08/10 04:27:11;;;;;;;;;;;;;;;24.87;46.28;100862.59;5098447;28;1030;-35
2021/08/10 04:29:37;;;;;;;;;;;;;;;24.26;50.11;100870.75;5097921;28;834;-37
2021/08/10 04:32:03;;;;;;;;;;;;;;;25.09;47.72;100864.84;5098210;28;1965;-37
2021/08/10 04:34:28;;;;;;;;;;;;;;;25.40;47.64;100864.19;5098195;28;946;-36
2021/08/10 04:36:53;;;;;;;;;;;;;;;25.51;46.90;100861.13;5097873;28;860;-37
2021/08/10 04:39:18;;;;;;;;;;;;;;;24.62;47.59;100859.00;5098518;28;803;-36
2021/08/10 04:41:44;;;;;;;;;;;;;;;23.89;48.84;100864.69;5097930;28;844;-37
2021/08/10 04:44:10;;;;;;;;;;;;;;;25.16;47.46;100857.75;5098104;28;812;-35
2021/08/10 04:46:35;;;;;;;;;;;;;;;25.63;47.33;100864.38;5097650;28;819;-36
2021/08/10 04:49:05;;;;;;;;;;;;;;;24.26;47.80;100854.63;5097802;28;775;-32
2021/08/10 04:51:30;;;;;;;;;;;;;;;25.05;47.76;100862.50;5097387;28;1965;-35
2021/08/10 04:53:55;;;;;;;;;;;;;;;25.84;46.89;100862.16;5079671;28;1454;-37
2021/08/10 04:56:20;;;;;;;;;;;;;;;24.61;47.24;100863.53;5096603;28;1152;-33
2021/08/10 04:58:46;;;;;;;;;;;;;;;23.76;49.04;100868.59;5098029;28;740;-37
2021/08/10 05:01:11;;;;;;;;;;;;;;;24.81;48.17;100869.47;5097778;28;814;-35
2021/08/10 05:03:36;;;;;;;;;;;;;;;25.97;45.08;100872.38;5097610;28;744;-37
2021/08/10 05:06:02;;;;;;;;;;;;;;;24.62;46.91;100867.91;5097328;28;974;-34
2021/08/10 05:08:27;;;;;;;;;;;;;;;23.72;48.88;100864.56;5079234;28;1326;-34
2021/08/10 05:10:58;;;;;;;;;;;;;;;24.45;49.49;100867.00;5097429;28;1976;-35
2021/08/10 05:13:23;;;;;;;;;;;;;;;25.78;44.98;100859.13;5097656;28;783;-37
2021/08/10 05:15:48;;;;;;;;;;;;;;;24.04;47.98;100859.56;5096856;28;747;-35
2021/08/10 05:18:14;;;;;;;;;;;;;;;25.29;45.37;100865.38;5096953;28;832;-36
2021/08/10 05:20:39;;;;;;;;;;;;;;;26.24;43.39;100860.31;5096952;28;959;-37
2021/08/10 05:23:04;;;;;;;;;;;;;;;26.60;43.24;100858.19;5097305;28;768;-31
2021/08/10 05:25:30;;;;;;;;;;;;;;;26.71;43.98;100863.19;5083975;28;1127;-31
2021/08/10 05:27:55;;;;;;;;;;;;;;;26.84;43.78;100857.19;5076724;28;898;-30
2021/08/10 05:30:20;;;;;;;;;;;;;;;27.00;43.60;100852.72;5076646;28;787;-36
2021/08/10 05:32:45;;;;;;;;;;;;;;;27.12;43.69;100858.56;5076728;28;1898;-35
2021/08/10 05:35:11;;;;;;;;;;;;;;;27.23;44.12;100860.00;5083123;28;939;-35
2021/08/10 05:37:36;;;;;;;;;;;;;;;27.38;43.66;100855.47;5096453;28;744;-34
2021/08/10 05:40:02;;;;;;;;;;;;;;;27.47;43.88;100863.50;5096814;28;763;-33
2021/08/10 05:42:27;;;;;;;;;;;;;;;27.45;43.71;100860.16;5097242;28;752;-36
2021/08/10 05:44:52;;;;;;;;;;;;;;;27.52;43.35;100861.09;5097119;28;858;-32
2021/08/10 05:47:18;;;;;;;;;;;;;;;27.58;42.82;100852.25;5096579;28;760;-37
2021/08/10 05:49:43;;;;;;;;;;;;;;;27.68;42.31;100851.13;5096108;28;1033;-37
2021/08/10 05:52:08;;;;;;;;;;;;;;;27.69;42.59;100845.63;5096725;28;1980;-33
2021/08/10 05:54:34;;;;;;;;;;;;;;;27.60;42.80;100850.22;5096599;28;779;-37
2021/08/10 05:56:59;;;;;;;;;;;;;;;27.57;42.42;100845.19;5096491;28;1294;-37
2021/08/10 05:59:25;;;;;;;;;;;;;;;27.59;42.63;100851.22;5096234;28;835;-36
2021/08/10 06:01:50;;;;;;;;;;;;;;;27.74;42.14;100839.66;5096616;28;815;-30
2021/08/10 06:04:16;;;;;;;;;;;;;;;27.82;42.17;100847.66;5096494;28;891;-34
2021/08/10 06:06:41;;;;;;;;;;;;;;;27.73;42.47;100851.47;5095977;28;939;-36
2021/08/10 06:09:06;;;;;;;;;;;;;;;27.55;42.85;100852.63;5095937;28;870;-35
2021/08/10 06:11:32;;;;;;;;;;;;;;;27.39;42.76;100842.81;5096209;28;1914;-36
2021/08/10 06:13:57;;;;;;;;;;;;;;;27.54;42.20;100847.41;5096069;28;836;-33
2021/08/10 06:16:23;;;;;;;;;;;;;;;27.83;41.77;100852.03;5096322;28;815;-37
2021/08/10 06:18:48;;;;;;;;;;;;;;;27.91;41.65;100852.97;5095835;28;768;-33
2021/08/10 06:21:13;;;;;;;;;;;;;;;28.01;41.73;100850.81;5096122;28;1006;-33
2021/08/10 06:23:39;;;;;;;;;;;;;;;28.08;41.28;100846.34;5096314;28;764;-36
2021/08/10 06:26:04;;;;;;;;;;;;;;;28.14;41.15;100842.06;5095639;28;1099;-31
2021/08/10 06:28:29;;;;;;;;;;;;;;;27.85;41.76;100841.88;5096198;28;871;-35
2021/08/10 06:30:55;;;;;;;;;;;;;;;27.78;41.37;100834.72;5095624;28;1972;-31
2021/08/10 06:33:20;;;;;;;;;;;;;;;27.70;40.80;100839.16;5096182;28;875;-31
2021/08/10 06:35:45;;;;;;;;;;;;;;;27.84;41.05;100833.97;5096096;28;955;-37
2021/08/10 06:38:10;;;;;;;;;;;;;;;27.99;40.59;100837.50;5095963;28;787;-30
2021/08/10 06:40:36;;;;;;;;;;;;;;;28.26;40.30;100833.47;5095664;28;886;-34
2021/08/10 06:43:02;;;;;;;;;;;;;;;28.33;40.47;100827.13;5096812;28;753;-32
2021/08/10 06:45:27;;;;;;;;;;;;;;;28.40;40.25;100829.94;5095657;28;843;-34
2021/08/10 06:47:52;;;;;;;;;;;;;;;28.34;40.46;100825.28;5096345;28;745;-36
2021/08/10 06:50:18;;;;;;;;;;;;;;;28.47;40.29;100836.28;5095315;28;947;-32
2021/08/10 06:52:44;;;;;;;;;;;;;;;28.47;40.47;100835.41;5095635;28;1913;-33
2021/08/10 06:55:09;;;;;;;;;;;;;;;28.52;40.56;100829.44;5095741;28;1031;-31
2021/08/10 06:57:34;;;;;;;;;;;;;;;28.53;40.38;100828.41;5096413;28;768;-32
2021/08/10 07:00:00;;;;;;;;;;;;;;;28.58;40.30;100824.09;5095007;28;1471;-31
2021/08/10 07:02:25;;;;;;;;;;;;;;;28.60;40.17;100823.91;5096024;28;1051;-31
2021/08/10 07:04:50;;;;;;;;;;;;;;;28.73;40.03;100821.34;5095562;28;938;-33
2021/08/10 07:07:15;;;;;;;;;;;;;;;28.77;40.01;100826.38;5096007;28;771;-37
2021/08/10 07:09:41;;;;;;;;;;;;;;;28.84;39.48;100828.09;5095690;28;771;-35
2021/08/10 07:12:06;;;;;;;;;;;;;;;28.95;39.32;100823.22;5095778;28;1922;-35
2021/08/10 07:14:31;;;;;;;;;;;;;;;29.01;39.41;100818.94;5095961;28;784;-30
2021/08/10 07:16:57;;;;;;;;;;;;;;;28.92;39.27;100819.03;5095698;28;748;-33
2021/08/10 07:19:22;;;;;;;;;;;;;;;29.05;39.19;100818.34;5095608;28;974;-36
2021/08/10 07:21:47;;;;;;;;;;;;;;;29.05;39.09;100818.34;5095219;28;1050;-34
2021/08/10 07:24:12;;;;;;;;;;;;;;;29.11;39.13;100814.03;5095711;28;1096;-36
2021/08/10 07:26:38;;;;;;;;;;;;;;;29.24;38.95;100820.56;5096074;28;874;-36
2021/08/10 07:29:03;;;;;;;;;;;;;;;29.14;39.12;100826.31;5095438;28;787;-35
2021/08/10 07:31:28;;;;;;;;;;;;;;;29.27;38.93;100828.31;5095199;28;1901;-36
2021/08/10 07:33:54;;;;;;;;;;;;;;;29.30;38.86;100830.63;5077986;28;1425;-36
2021/08/10 07:36:19;;;;;;;;;;;;;;;29.37;38.66;100828.81;5095653;28;958;-36
2021/08/10 07:38:44;;;;;;;;;;;;;;;29.29;39.15;100827.09;5096071;28;791;-36
2021/08/10 07:41:10;;;;;;;;;;;;;;;29.34;38.79;100831.91;5099505;28;811;-36
2021/08/10 07:43:35;;;;;;;;;;;;;;;29.33;39.07;100830.22;5099087;28;780;-36
2021/08/10 07:46:00;;;;;;;;;;;;;;;29.49;38.74;100831.81;5099163;28;843;-31
2021/08/10 07:48:25;;;;;;;;;;;;;;;29.41;38.86;100835.50;5099318;28;810;-36
2021/08/10 07:50:51;;;;;;;;;;;;;;;29.42;38.89;100836.34;5098928;28;1964;-35
2021/08/10 07:53:19;;;;;;;;;;;;;;;29.58;38.73;100844.19;5098804;28;736;-36
2021/08/10 07:55:44;;;;;;;;;;;;;;;29.53;38.88;100832.28;5098687;28;1053;-33
2021/08/10 07:58:10;;;;;;;;;;;;;;;29.60;38.58;100833.16;5099106;28;768;-34
2021/08/10 08:00:35;;;;;;;;;;;;;;;29.53;38.92;100835.78;5098660;28;811;-36
2021/08/10 08:03:00;;;;;;;;;;;;;;;29.62;38.60;100828.41;5098316;28;929;-34
2021/08/10 08:05:26;;;;;;;;;;;;;;;29.50;38.92;100828.06;5080247;28;1026;-36
2021/08/10 08:07:51;;;;;;;;;;;;;;;29.63;38.79;100832.78;5098803;28;795;-36
2021/08/10 08:10:16;;;;;;;;;;;;;;;29.61;38.72;100823.19;5098631;28;804;-34
2021/08/10 08:12:41;;;;;;;;;;;;;;;29.64;38.78;100823.63;5098522;28;1906;-34
2021/08/10 08:15:07;;;;;;;;;;;;;;;29.60;38.69;100819.63;5098654;28;748;-36
2021/08/10 08:17:33;;;;;;;;;;;;;;;29.58;38.71;100827.91;5098861;28;728;-35
2021/08/10 08:19:58;;;;;;;;;;;;;;;29.60;38.69;100829.59;5098218;28;977;-36
2021/08/10 08:22:23;;;;;;;;;;;;;;;29.67;38.58;100834.06;5098156;28;807;-36
2021/08/10 08:24:48;;;;;;;;;;;;;;;29.72;38.50;100825.31;5098743;28;1099;-34
2021/08/10 08:27:14;;;;;;;;;;;;;;;29.74;38.40;100823.25;5098717;28;744;-36
2021/08/10 08:29:39;;;;;;;;;;;;;;;29.78;38.21;100824.53;5098089;28;771;-36
2021/08/10 08:32:06;;;;;;;;;;;;;;;29.71;38.27;100820.94;5098312;28;1968;-35
2021/08/10 08:34:32;;;;;;;;;;;;;;;29.82;37.94;100812.25;5097708;28;982;-32
2021/08/10 08:36:57;;;;;;;;;;;;;;;29.72;38.27;100819.06;5098145;28;847;-36
2021/08/10 08:39:22;;;;;;;;;;;;;;;29.80;38.15;100814.31;5098304;28;823;-37
2021/08/10 08:41:47;;;;;;;;;;;;;;;29.87;37.99;100808.94;5098172;28;815;-36
2021/08/10 08:44:16;;;;;;;;;;;;;;;29.88;38.16;100807.88;5079608;28;752;-36
2021/08/10 08:46:42;;;;;;;;;;;;;;;29.97;37.84;100803.16;5098157;28;815;-34
2021/08/10 08:49:07;;;;;;;;;;;;;;;30.06;37.74;100799.22;5080184;28;875;-32
2021/08/10 08:51:32;;;;;;;;;;;;;;;30.15;37.66;100799.88;5077656;28;1889;-36
2021/08/10 08:53:58;;;;;;;;;;;;;;;30.12;37.59;100803.00;5097766;28;798;-36
2021/08/10 08:56:23;;;;;;;;;;;;;;;30.17;37.77;100788.81;5093687;28;1424;-42
2021/08/10 08:58:49;;;;;;;;;;;;;;;29.62;37.13;100793.16;5118276;28;794;-38
2021/08/10 09:01:14;;;;;;;;;;;;;;;27.93;37.08;100783.31;5118521;28;772;-39
2021/08/10 09:03:39;;;;;;;;;;;;;;;27.05;37.86;100780.16;5118018;28;779;-38
2021/08/10 09:06:04;;;;;;;;;;;;;;;27.47;39.32;100782.47;5103653;28;974;-39
2021/08/10 09:08:33;;;;;;;;;;;;;;;27.21;40.97;100776.44;5097805;28;807;-43
2021/08/10 09:11:02;;;;;;;;;;;;;;;26.73;42.08;100777.50;5079479;28;1917;-40
2021/08/10 09:13:28;;;;;;;;;;;;;;;26.51;43.15;100776.44;5097167;28;819;-40
2021/08/10 09:15:54;;;;;;;;;;;;;;;26.15;43.75;100775.09;5097532;28;860;-41
2021/08/10 09:18:20;;;;;;;;;;;;;;;25.94;44.67;100760.38;5079216;28;1152;-38
2021/08/10 09:21:01;;;;;;;;;;;;;;;25.79;45.25;100754.88;5107984;28;966;-39
2021/08/10 09:23:45;;;;;;;;;;;;;;;25.62;45.33;100757.59;5118059;28;748;-39
2021/08/10 09:26:12;;;;;;;;;;;;;;;25.46;45.94;100752.25;5098579;28;1158;-37
2021/08/10 09:28:37;;;;;;;;;;;;;;;25.53;45.87;100737.91;5097319;28;791;-39
2021/08/10 09:31:21;;;;;;;;;;;;;;;25.30;46.43;100745.88;5097300;28;1910;-40
2021/08/10 09:33:46;;;;;;;;;;;;;;;25.23;46.67;100744.88;5097027;28;772;-39
2021/08/10 09:36:18;;;;;;;;;;;;;;;25.23;46.59;100744.88;5112063;28;1005;-40
2021/08/10 09:38:47;;;;;;;;;;;;;;;25.31;46.55;100750.25;5117597;28;771;-37
2021/08/10 09:41:14;;;;;;;;;;;;;;;24.88;47.56;100747.72;5117361;28;783;-39
2021/08/10 09:43:40;;;;;;;;;;;;;;;25.13;47.37;100740.50;5117212;28;804;-42
2021/08/10 09:46:05;;;;;;;;;;;;;;;25.19;47.15;100739.81;5116985;28;820;-41
2021/08/10 09:48:31;;;;;;;;;;;;;;;25.01;47.86;100744.53;5117497;28;836;-39
2021/08/10 09:51:05;;;;;;;;;;;;;;;24.84;48.46;100752.59;5102784;28;1934;-39
2021/08/10 09:53:30;;;;;;;;;;;;;;;24.86;48.64;100752.44;5097165;28;848;-37
2021/08/10 09:55:56;;;;;;;;;;;;;;;26.50;46.80;100753.19;5086577;28;1495;-38
2021/08/10 09:58:21;;;;;;;;;;;;;;;26.96;44.19;100743.44;5076006;28;871;-40
2021/08/10 10:00:46;;;;;;;;;;;;;;;25.17;47.63;100736.47;5076344;28;752;-38
2021/08/10 10:03:16;;;;;;;;;;;;;;;25.09;47.69;100736.47;5058055;28;1238;-39
2021/08/10 10:05:43;;;;;;;;;;;;;;;25.04;47.90;100734.28;5076075;28;974;-40
2021/08/10 10:08:15;;;;;;;;;;;;;;;25.14;47.63;100731.41;5076663;28;776;-37
2021/08/10 10:10:41;;;;;;;;;;;;;;;25.04;47.94;100734.28;5076733;28;753;-40
2021/08/10 10:13:07;;;;;;;;;;;;;;;25.47;49.99;100725.16;5076402;28;1981;-37
2021/08/10 10:15:32;;;;;;;;;;;;;;;27.28;44.10;100735.22;5058351;28;875;-40
2021/08/10 10:17:58;;;;;;;;;;;;;;;25.91;45.55;100739.16;5075832;28;803;-39
2021/08/10 10:20:24;;;;;;;;;;;;;;;25.14;46.39;100722.53;5057804;28;1006;-39
2021/08/10 10:22:50;;;;;;;;;;;;;;;24.93;47.50;100727.41;5076605;28;815;-36
2021/08/10 10:25:15;;;;;;;;;;;;;;;24.90;47.86;100732.25;5069183;28;1148;-39
2021/08/10 10:27:40;;;;;;;;;;;;;;;25.87;48.19;100730.59;5095910;28;732;-36
2021/08/10 10:30:06;;;;;;;;;;;;;;;27.36;43.67;100727.88;5078141;28;792;-37
2021/08/10 10:32:31;;;;;;;;;;;;;;;26.04;46.06;100725.13;5096174;28;1902;-40
2021/08/10 10:34:57;;;;;;;;;;;;;;;25.40;47.28;100722.31;5095902;28;1013;-39
2021/08/10 10:37:29;;;;;;;;;;;;;;;24.97;48.17;100713.63;5096172;28;824;-40
2021/08/10 10:39:58;;;;;;;;;;;;;;;24.99;48.22;100709.72;5078218;28;1516;-38
2021/08/10 10:42:23;;;;;;;;;;;;;;;25.76;48.79;100710.25;5095714;28;776;-37
2021/08/10 10:44:52;;;;;;;;;;;;;;;27.45;43.31;100709.72;5096376;28;799;-39
2021/08/10 10:47:20;;;;;;;;;;;;;;;26.14;45.76;100709.56;5095748;28;807;-39
2021/08/10 10:49:45;;;;;;;;;;;;;;;25.58;47.13;100705.06;5095601;28;947;-37
2021/08/10 10:52:10;;;;;;;;;;;;;;;25.20;47.63;100697.59;5096098;28;1909;-37
2021/08/10 10:54:42;;;;;;;;;;;;;;;26.04;48.61;100708.97;5095797;28;902;-37
2021/08/10 10:57:08;;;;;;;;;;;;;;;27.43;43.84;100703.66;5095633;28;1300;-38
2021/08/10 10:59:34;;;;;;;;;;;;;;;26.19;45.84;100702.81;5077403;28;1238;-39
2021/08/10 11:02:12;;;;;;;;;;;;;;;25.57;47.11;100708.78;5095780;28;819;-39
2021/08/10 11:04:37;;;;;;;;;;;;;;;25.25;47.90;100705.16;5095440;28;970;-37
2021/08/10 11:07:38;;;;;;;;;;;;;;;25.11;48.25;100698.66;5096239;28;710;-39
2021/08/10 11:10:04;;;;;;;;;;;;;;;26.04;48.65;100701.69;5014076;28;1026;-40
2021/08/10 11:12:45;;;;;;;;;;;;;;;27.45;44.01;100704.31;5078884;28;1918;-38
2021/08/10 11:15:11;;;;;;;;;;;;;;;25.71;45.83;100693.75;5099469;28;838;-38
2021/08/10 11:17:37;;;;;;;;;;;;;;;25.12;46.42;100693.09;5100282;28;776;-39
2021/08/10 11:20:21;;;;;;;;;;;;;;;25.01;47.63;100698.78;5098574;28;927;-37
2021/08/10 11:22:46;;;;;;;;;;;;;;;25.09;47.95;100684.50;5099911;28;816;-39
2021/08/10 11:25:22;;;;;;;;;;;;;;;25.90;48.51;100679.03;5089524;28;1178;-40
2021/08/10 11:27:47;;;;;;;;;;;;;;;27.42;43.98;100682.22;5079049;28;764;-39
2021/08/10 11:30:15;;;;;;;;;;;;;;;26.43;45.93;100676.69;5079112;28;816;-39
2021/08/10 11:32:44;;;;;;;;;;;;;;;25.72;47.17;100682.00;5079267;28;1981;-39
2021/08/10 11:35:28;;;;;;;;;;;;;;;25.63;47.45;100689.25;5085118;28;1002;-41
2021/08/10 11:38:14;;;;;;;;;;;;;;;25.30;48.21;100679.41;5099734;28;748;-37
2021/08/10 11:40:58;;;;;;;;;;;;;;;26.19;48.40;100675.84;5098421;28;1815;-38
2021/08/10 11:43:32;;;;;;;;;;;;;;;27.33;45.13;100676.06;5098922;28;729;-39
2021/08/10 11:45:58;;;;;;;;;;;;;;;25.72;45.72;100671.22;5099364;28;760;-36
2021/08/10 11:48:23;;;;;;;;;;;;;;;25.06;47.34;100670.38;5080906;28;813;-37
2021/08/10 11:50:49;;;;;;;;;;;;;;;25.19;48.22;100666.31;5098881;28;954;-39
2021/08/10 11:53:27;;;;;;;;;;;;;;;24.98;48.44;100664.16;5099075;28;1906;-38
2021/08/10 11:55:52;;;;;;;;;;;;;;;25.14;48.17;100669.50;5090097;28;1266;-40
2021/08/10 11:58:17;;;;;;;;;;;;;;;25.01;48.80;100661.13;5119613;28;835;-39
2021/08/10 12:00:42;;;;;;;;;;;;;;;26.00;48.91;100665.34;5119144;28;795;-39
2021/08/10 12:03:08;;;;;;;;;;;;;;;27.41;44.33;100658.94;5119464;28;833;-38
2021/08/10 12:05:33;;;;;;;;;;;;;;;26.33;46.40;100652.69;5090841;28;966;-39
2021/08/10 12:07:59;;;;;;;;;;;;;;;25.57;47.79;100652.22;5098777;28;735;-37
2021/08/10 12:10:31;;;;;;;;;;;;;;;25.16;48.92;100647.81;5098462;28;775;-40
2021/08/10 12:13:01;;;;;;;;;;;;;;;25.06;48.97;100648.00;5098331;28;1914;-37
2021/08/10 12:15:36;;;;;;;;;;;;;;;25.49;50.21;100658.47;5098853;28;811;-40
2021/08/10 12:18:01;;;;;;;;;;;;;;;27.15;45.59;100644.88;5079580;28;808;-38
2021/08/10 12:20:27;;;;;;;;;;;;;;;26.32;45.94;100648.28;5079587;28;961;-36
2021/08/10 12:23:02;;;;;;;;;;;;;;;25.32;46.77;100641.56;5099091;28;823;-34
2021/08/10 12:25:27;;;;;;;;;;;;;;;25.05;48.25;100635.56;5097556;28;1127;-36
2021/08/10 12:27:59;;;;;;;;;;;;;;;25.18;48.29;100633.16;5098511;28;819;-36
2021/08/10 12:30:24;;;;;;;;;;;;;;;25.27;47.85;100631.31;5098222;28;760;-29
2021/08/10 12:32:50;;;;;;;;;;;;;;;25.13;48.53;100637.38;5098367;28;1969;-36
2021/08/10 12:35:21;;;;;;;;;;;;;;;25.10;48.51;100630.50;5079885;28;955;-37
2021/08/10 12:37:46;;;;;;;;;;;;;;;26.71;46.28;100633.81;5098402;28;806;-36
2021/08/10 12:40:15;;;;;;;;;;;;;;;26.70;45.35;100634.00;5098201;28;819;-37
2021/08/10 12:42:40;;;;;;;;;;;;;;;25.55;46.09;100643.47;5098345;28;768;-36
2021/08/10 12:45:06;;;;;;;;;;;;;;;25.19;47.64;100640.22;5079959;28;776;-33
2021/08/10 12:47:31;;;;;;;;;;;;;;;24.96;48.08;100641.97;5080253;28;861;-37
2021/08/10 12:49:57;;;;;;;;;;;;;;;24.89;48.52;100637.22;5098240;28;1028;-34